sensor_id;sensor_type;location;lat;lon;timestamp;P1;durP1;ratioP1;P2;durP2;ratioP2
23802;SDS011;12082;51.786;6.018;2024-03-08T00:01:44;41.73;;;22.67;;
23802;SDS011;12082;51.786;6.018;2024-03-08T00:04:10;44.87;;;21.90;;
23802;SDS011;12082;51.786;6.018;2024-03-08T00:06:36;45.07;;;23.30;;
23802;SDS011;12082;51.786;6.018;2024-03-08T00:09:02;43.10;;;23.83;;
23802;SDS011;12082;51.786;6.018;2024-03-08T00:11:28;46.83;;;23.27;;
23802;SDS011;12082;51.786;6.018;2024-03-08T00:13:54;42.60;;;22.43;;
23802;SDS011;12082;51.786;6.018;2024-03-08T00:16:20;47.17;;;23.30;;
23802;SDS011;12082;51.786;6.018;2024-03-08T00:18:48;44.80;;;23.63;;
23802;SDS011;12082;51.786;6.018;2024-03-08T00:21:14;43.33;;;22.43;;
23802;SDS011;12082;51.786;6.018;2024-03-08T00:23:40;47.33;;;23.77;;
23802;SDS011;12082;51.786;6.018;2024-03-08T00:26:06;40.17;;;22.67;;
23802;SDS011;12082;51.786;6.018;2024-03-08T00:28:32;41.97;;;22.80;;
23802;SDS011;12082;51.786;6.018;2024-03-08T00:31:01;41.07;;;21.70;;
23802;SDS011;12082;51.786;6.018;2024-03-08T00:33:27;42.37;;;22.47;;
23802;SDS011;12082;51.786;6.018;2024-03-08T00:35:53;44.83;;;22.30;;
23802;SDS011;12082;51.786;6.018;2024-03-08T00:38:19;42.53;;;22.20;;
23802;SDS011;12082;51.786;6.018;2024-03-08T00:40:45;44.27;;;22.27;;
23802;SDS011;12082;51.786;6.018;2024-03-08T00:43:11;48.03;;;23.33;;
23802;SDS011;12082;51.786;6.018;2024-03-08T00:45:38;43.23;;;22.77;;
23802;SDS011;12082;51.786;6.018;2024-03-08T00:48:07;40.07;;;21.60;;
23802;SDS011;12082;51.786;6.018;2024-03-08T00:50:33;48.03;;;22.80;;
23802;SDS011;12082;51.786;6.018;2024-03-08T00:52:59;45.47;;;22.53;;
23802;SDS011;12082;51.786;6.018;2024-03-08T00:55:25;44.87;;;23.27;;
23802;SDS011;12082;51.786;6.018;2024-03-08T00:57:51;48.70;;;22.17;;
23802;SDS011;12082;51.786;6.018;2024-03-08T01:00:18;44.63;;;22.70;;
23802;SDS011;12082;51.786;6.018;2024-03-08T01:02:46;45.20;;;23.27;;
23802;SDS011;12082;51.786;6.018;2024-03-08T01:05:12;42.77;;;23.00;;
23802;SDS011;12082;51.786;6.018;2024-03-08T01:07:38;40.30;;;22.23;;
23802;SDS011;12082;51.786;6.018;2024-03-08T01:10:05;38.43;;;21.40;;
23802;SDS011;12082;51.786;6.018;2024-03-08T01:12:34;45.70;;;23.03;;
23802;SDS011;12082;51.786;6.018;2024-03-08T01:15:00;43.80;;;22.10;;
23802;SDS011;12082;51.786;6.018;2024-03-08T01:17:27;45.73;;;25.03;;
23802;SDS011;12082;51.786;6.018;2024-03-08T01:19:52;50.80;;;24.33;;
23802;SDS011;12082;51.786;6.018;2024-03-08T01:22:19;46.13;;;24.17;;
23802;SDS011;12082;51.786;6.018;2024-03-08T01:24:45;54.80;;;25.57;;
23802;SDS011;12082;51.786;6.018;2024-03-08T01:27:11;47.47;;;24.00;;
23802;SDS011;12082;51.786;6.018;2024-03-08T01:29:37;43.53;;;22.97;;
23802;SDS011;12082;51.786;6.018;2024-03-08T01:32:03;39.63;;;23.60;;
23802;SDS011;12082;51.786;6.018;2024-03-08T01:34:31;48.23;;;23.37;;
23802;SDS011;12082;51.786;6.018;2024-03-08T01:36:58;47.80;;;23.67;;
23802;SDS011;12082;51.786;6.018;2024-03-08T01:39:24;47.90;;;25.30;;
23802;SDS011;12082;51.786;6.018;2024-03-08T01:41:50;47.23;;;23.70;;
23802;SDS011;12082;51.786;6.018;2024-03-08T01:44:16;44.00;;;24.40;;
23802;SDS011;12082;51.786;6.018;2024-03-08T01:46:45;42.70;;;24.23;;
23802;SDS011;12082;51.786;6.018;2024-03-08T01:49:12;44.70;;;23.63;;
23802;SDS011;12082;51.786;6.018;2024-03-08T01:51:38;43.10;;;23.73;;
23802;SDS011;12082;51.786;6.018;2024-03-08T01:54:05;39.40;;;23.00;;
23802;SDS011;12082;51.786;6.018;2024-03-08T01:56:32;42.03;;;23.50;;
23802;SDS011;12082;51.786;6.018;2024-03-08T01:58:59;45.57;;;23.37;;
23802;SDS011;12082;51.786;6.018;2024-03-08T02:01:25;42.93;;;23.50;;
23802;SDS011;12082;51.786;6.018;2024-03-08T02:03:51;45.53;;;24.30;;
23802;SDS011;12082;51.786;6.018;2024-03-08T02:06:17;45.17;;;25.10;;
23802;SDS011;12082;51.786;6.018;2024-03-08T02:08:46;48.77;;;25.53;;
23802;SDS011;12082;51.786;6.018;2024-03-08T02:11:13;39.57;;;23.63;;
23802;SDS011;12082;51.786;6.018;2024-03-08T02:13:40;48.10;;;24.70;;
23802;SDS011;12082;51.786;6.018;2024-03-08T02:16:07;45.47;;;24.73;;
23802;SDS011;12082;51.786;6.018;2024-03-08T02:18:33;45.77;;;24.37;;
23802;SDS011;12082;51.786;6.018;2024-03-08T02:21:00;46.27;;;25.17;;
23802;SDS011;12082;51.786;6.018;2024-03-08T02:23:27;49.27;;;24.30;;
23802;SDS011;12082;51.786;6.018;2024-03-08T02:25:54;48.27;;;25.20;;
23802;SDS011;12082;51.786;6.018;2024-03-08T02:28:21;45.63;;;24.83;;
23802;SDS011;12082;51.786;6.018;2024-03-08T02:30:47;49.17;;;27.03;;
23802;SDS011;12082;51.786;6.018;2024-03-08T02:33:13;49.10;;;26.50;;
23802;SDS011;12082;51.786;6.018;2024-03-08T02:35:42;53.10;;;25.87;;
23802;SDS011;12082;51.786;6.018;2024-03-08T02:38:14;48.57;;;25.37;;
23802;SDS011;12082;51.786;6.018;2024-03-08T02:40:47;44.40;;;24.70;;
23802;SDS011;12082;51.786;6.018;2024-03-08T02:43:14;47.30;;;25.10;;
23802;SDS011;12082;51.786;6.018;2024-03-08T02:45:40;43.77;;;24.57;;
23802;SDS011;12082;51.786;6.018;2024-03-08T02:48:07;39.00;;;23.23;;
23802;SDS011;12082;51.786;6.018;2024-03-08T02:50:33;45.27;;;23.90;;
23802;SDS011;12082;51.786;6.018;2024-03-08T02:53:00;48.80;;;26.67;;
23802;SDS011;12082;51.786;6.018;2024-03-08T02:55:26;45.63;;;25.17;;
23802;SDS011;12082;51.786;6.018;2024-03-08T02:57:52;45.73;;;26.20;;
23802;SDS011;12082;51.786;6.018;2024-03-08T03:00:19;47.43;;;25.03;;
23802;SDS011;12082;51.786;6.018;2024-03-08T03:02:46;54.40;;;26.67;;
23802;SDS011;12082;51.786;6.018;2024-03-08T03:05:12;45.70;;;24.77;;
23802;SDS011;12082;51.786;6.018;2024-03-08T03:07:39;50.03;;;27.20;;
23802;SDS011;12082;51.786;6.018;2024-03-08T03:10:05;46.50;;;26.60;;
23802;SDS011;12082;51.786;6.018;2024-03-08T03:12:32;48.83;;;25.30;;
23802;SDS011;12082;51.786;6.018;2024-03-08T03:14:58;53.80;;;27.63;;
23802;SDS011;12082;51.786;6.018;2024-03-08T03:17:25;46.57;;;26.63;;
23802;SDS011;12082;51.786;6.018;2024-03-08T03:19:51;49.97;;;25.53;;
23802;SDS011;12082;51.786;6.018;2024-03-08T03:22:18;51.37;;;26.00;;
23802;SDS011;12082;51.786;6.018;2024-03-08T03:24:44;49.20;;;27.23;;
23802;SDS011;12082;51.786;6.018;2024-03-08T03:27:11;43.07;;;24.97;;
23802;SDS011;12082;51.786;6.018;2024-03-08T03:29:40;48.87;;;27.47;;
23802;SDS011;12082;51.786;6.018;2024-03-08T03:32:10;47.70;;;25.63;;
23802;SDS011;12082;51.786;6.018;2024-03-08T03:34:37;45.00;;;24.77;;
23802;SDS011;12082;51.786;6.018;2024-03-08T03:37:03;47.20;;;26.07;;
23802;SDS011;12082;51.786;6.018;2024-03-08T03:39:29;49.93;;;24.63;;
23802;SDS011;12082;51.786;6.018;2024-03-08T03:42:13;53.00;;;26.83;;
23802;SDS011;12082;51.786;6.018;2024-03-08T03:44:39;51.20;;;27.73;;
23802;SDS011;12082;51.786;6.018;2024-03-08T03:47:06;46.60;;;26.57;;
23802;SDS011;12082;51.786;6.018;2024-03-08T03:49:32;52.47;;;25.93;;
23802;SDS011;12082;51.786;6.018;2024-03-08T03:51:58;50.63;;;27.47;;
23802;SDS011;12082;51.786;6.018;2024-03-08T03:54:25;51.07;;;25.80;;
23802;SDS011;12082;51.786;6.018;2024-03-08T03:56:51;48.97;;;26.20;;
23802;SDS011;12082;51.786;6.018;2024-03-08T03:59:18;48.53;;;26.07;;
23802;SDS011;12082;51.786;6.018;2024-03-08T04:01:44;50.30;;;24.57;;
23802;SDS011;12082;51.786;6.018;2024-03-08T04:04:10;52.00;;;27.67;;
23802;SDS011;12082;51.786;6.018;2024-03-08T04:06:37;50.03;;;25.67;;
23802;SDS011;12082;51.786;6.018;2024-03-08T04:09:03;44.27;;;25.27;;
23802;SDS011;12082;51.786;6.018;2024-03-08T04:11:29;45.63;;;24.67;;
23802;SDS011;12082;51.786;6.018;2024-03-08T04:13:55;47.63;;;25.63;;
23802;SDS011;12082;51.786;6.018;2024-03-08T04:16:21;46.00;;;23.73;;
23802;SDS011;12082;51.786;6.018;2024-03-08T04:18:48;52.63;;;25.53;;
23802;SDS011;12082;51.786;6.018;2024-03-08T04:21:14;47.50;;;25.77;;
23802;SDS011;12082;51.786;6.018;2024-03-08T04:23:40;53.43;;;28.13;;
23802;SDS011;12082;51.786;6.018;2024-03-08T04:26:06;54.47;;;26.43;;
23802;SDS011;12082;51.786;6.018;2024-03-08T04:28:34;52.37;;;27.43;;
23802;SDS011;12082;51.786;6.018;2024-03-08T04:31:00;45.97;;;24.73;;
23802;SDS011;12082;51.786;6.018;2024-03-08T04:33:26;50.87;;;26.13;;
23802;SDS011;12082;51.786;6.018;2024-03-08T04:35:53;55.23;;;25.47;;
23802;SDS011;12082;51.786;6.018;2024-03-08T04:38:19;49.67;;;25.87;;
23802;SDS011;12082;51.786;6.018;2024-03-08T04:40:44;44.43;;;23.80;;
23802;SDS011;12082;51.786;6.018;2024-03-08T04:43:10;47.17;;;25.03;;
23802;SDS011;12082;51.786;6.018;2024-03-08T04:45:36;45.40;;;25.83;;
23802;SDS011;12082;51.786;6.018;2024-03-08T04:48:03;49.50;;;26.27;;
23802;SDS011;12082;51.786;6.018;2024-03-08T04:50:29;49.80;;;26.87;;
23802;SDS011;12082;51.786;6.018;2024-03-08T04:52:55;54.17;;;26.40;;
23802;SDS011;12082;51.786;6.018;2024-03-08T04:55:21;49.00;;;26.73;;
23802;SDS011;12082;51.786;6.018;2024-03-08T04:57:48;50.63;;;27.40;;
23802;SDS011;12082;51.786;6.018;2024-03-08T05:00:14;49.40;;;26.23;;
23802;SDS011;12082;51.786;6.018;2024-03-08T05:02:41;53.83;;;27.83;;
23802;SDS011;12082;51.786;6.018;2024-03-08T05:05:07;58.13;;;28.23;;
23802;SDS011;12082;51.786;6.018;2024-03-08T05:07:37;56.47;;;28.13;;
23802;SDS011;12082;51.786;6.018;2024-03-08T05:10:04;64.10;;;29.57;;
23802;SDS011;12082;51.786;6.018;2024-03-08T05:12:31;58.80;;;27.80;;
23802;SDS011;12082;51.786;6.018;2024-03-08T05:14:57;55.77;;;28.60;;
23802;SDS011;12082;51.786;6.018;2024-03-08T05:17:23;54.27;;;27.93;;
23802;SDS011;12082;51.786;6.018;2024-03-08T05:19:50;55.47;;;28.17;;
23802;SDS011;12082;51.786;6.018;2024-03-08T05:22:16;52.20;;;27.67;;
23802;SDS011;12082;51.786;6.018;2024-03-08T05:24:42;58.47;;;30.77;;
23802;SDS011;12082;51.786;6.018;2024-03-08T05:27:09;54.57;;;27.57;;
23802;SDS011;12082;51.786;6.018;2024-03-08T05:29:35;50.90;;;26.47;;
23802;SDS011;12082;51.786;6.018;2024-03-08T05:32:01;54.60;;;27.70;;
23802;SDS011;12082;51.786;6.018;2024-03-08T05:34:28;54.07;;;27.23;;
23802;SDS011;12082;51.786;6.018;2024-03-08T05:36:54;52.03;;;27.83;;
23802;SDS011;12082;51.786;6.018;2024-03-08T05:39:20;57.00;;;28.03;;
23802;SDS011;12082;51.786;6.018;2024-03-08T05:41:46;54.37;;;28.40;;
23802;SDS011;12082;51.786;6.018;2024-03-08T05:44:12;59.73;;;29.13;;
23802;SDS011;12082;51.786;6.018;2024-03-08T05:46:39;54.40;;;28.23;;
23802;SDS011;12082;51.786;6.018;2024-03-08T05:49:08;49.17;;;27.20;;
23802;SDS011;12082;51.786;6.018;2024-03-08T05:51:35;52.80;;;26.67;;
23802;SDS011;12082;51.786;6.018;2024-03-08T05:54:02;55.77;;;29.53;;
23802;SDS011;12082;51.786;6.018;2024-03-08T05:56:28;50.27;;;27.30;;
23802;SDS011;12082;51.786;6.018;2024-03-08T05:58:55;48.10;;;25.70;;
23802;SDS011;12082;51.786;6.018;2024-03-08T06:01:21;51.33;;;25.40;;
23802;SDS011;12082;51.786;6.018;2024-03-08T06:03:47;54.73;;;26.73;;
23802;SDS011;12082;51.786;6.018;2024-03-08T06:06:14;56.27;;;29.13;;
23802;SDS011;12082;51.786;6.018;2024-03-08T06:08:40;58.43;;;28.53;;
23802;SDS011;12082;51.786;6.018;2024-03-08T06:11:08;51.97;;;29.20;;
23802;SDS011;12082;51.786;6.018;2024-03-08T06:13:34;63.50;;;28.43;;
23802;SDS011;12082;51.786;6.018;2024-03-08T06:16:01;59.97;;;29.83;;
23802;SDS011;12082;51.786;6.018;2024-03-08T06:18:30;55.13;;;28.47;;
23802;SDS011;12082;51.786;6.018;2024-03-08T06:20:56;59.53;;;30.90;;
23802;SDS011;12082;51.786;6.018;2024-03-08T06:23:22;60.83;;;29.20;;
23802;SDS011;12082;51.786;6.018;2024-03-08T06:25:48;60.43;;;27.93;;
23802;SDS011;12082;51.786;6.018;2024-03-08T06:28:14;62.83;;;30.77;;
23802;SDS011;12082;51.786;6.018;2024-03-08T06:30:41;60.23;;;28.90;;
23802;SDS011;12082;51.786;6.018;2024-03-08T06:33:08;61.37;;;29.80;;
23802;SDS011;12082;51.786;6.018;2024-03-08T06:35:34;55.43;;;28.90;;
23802;SDS011;12082;51.786;6.018;2024-03-08T06:38:02;62.80;;;30.17;;
23802;SDS011;12082;51.786;6.018;2024-03-08T06:40:28;57.57;;;30.10;;
23802;SDS011;12082;51.786;6.018;2024-03-08T06:42:54;56.30;;;29.20;;
23802;SDS011;12082;51.786;6.018;2024-03-08T06:45:20;58.20;;;29.07;;
23802;SDS011;12082;51.786;6.018;2024-03-08T06:47:48;55.43;;;28.00;;
23802;SDS011;12082;51.786;6.018;2024-03-08T06:50:14;55.10;;;27.73;;
23802;SDS011;12082;51.786;6.018;2024-03-08T06:52:41;46.57;;;27.37;;
23802;SDS011;12082;51.786;6.018;2024-03-08T06:55:13;53.90;;;27.23;;
23802;SDS011;12082;51.786;6.018;2024-03-08T06:57:39;56.33;;;27.77;;
23802;SDS011;12082;51.786;6.018;2024-03-08T07:00:06;53.60;;;27.67;;
23802;SDS011;12082;51.786;6.018;2024-03-08T07:02:35;55.27;;;26.97;;
23802;SDS011;12082;51.786;6.018;2024-03-08T07:05:01;50.47;;;28.23;;
23802;SDS011;12082;51.786;6.018;2024-03-08T07:07:29;51.47;;;26.63;;
23802;SDS011;12082;51.786;6.018;2024-03-08T07:09:56;51.50;;;27.00;;
23802;SDS011;12082;51.786;6.018;2024-03-08T07:12:22;51.47;;;24.93;;
23802;SDS011;12082;51.786;6.018;2024-03-08T07:14:49;50.80;;;26.13;;
23802;SDS011;12082;51.786;6.018;2024-03-08T07:17:15;48.37;;;25.53;;
23802;SDS011;12082;51.786;6.018;2024-03-08T07:19:41;47.07;;;25.97;;
23802;SDS011;12082;51.786;6.018;2024-03-08T07:22:07;47.47;;;25.97;;
23802;SDS011;12082;51.786;6.018;2024-03-08T07:24:37;41.67;;;23.13;;
23802;SDS011;12082;51.786;6.018;2024-03-08T07:27:17;41.67;;;23.67;;
23802;SDS011;12082;51.786;6.018;2024-03-08T07:29:43;39.77;;;24.17;;
23802;SDS011;12082;51.786;6.018;2024-03-08T07:32:09;37.97;;;23.50;;
23802;SDS011;12082;51.786;6.018;2024-03-08T07:34:48;42.07;;;23.40;;
23802;SDS011;12082;51.786;6.018;2024-03-08T07:37:18;42.73;;;22.40;;
23802;SDS011;12082;51.786;6.018;2024-03-08T07:39:45;46.33;;;24.30;;
23802;SDS011;12082;51.786;6.018;2024-03-08T07:42:11;44.40;;;23.10;;
23802;SDS011;12082;51.786;6.018;2024-03-08T07:44:37;33.70;;;21.00;;
23802;SDS011;12082;51.786;6.018;2024-03-08T07:47:04;39.57;;;21.47;;
23802;SDS011;12082;51.786;6.018;2024-03-08T07:49:30;37.20;;;21.07;;
23802;SDS011;12082;51.786;6.018;2024-03-08T07:51:56;35.53;;;20.53;;
23802;SDS011;12082;51.786;6.018;2024-03-08T07:54:22;35.97;;;19.37;;
23802;SDS011;12082;51.786;6.018;2024-03-08T07:56:50;29.13;;;18.90;;
23802;SDS011;12082;51.786;6.018;2024-03-08T07:59:17;37.67;;;19.90;;
23802;SDS011;12082;51.786;6.018;2024-03-08T08:01:43;30.97;;;18.30;;
23802;SDS011;12082;51.786;6.018;2024-03-08T08:04:09;31.20;;;19.10;;
23802;SDS011;12082;51.786;6.018;2024-03-08T08:06:38;29.93;;;17.37;;
23802;SDS011;12082;51.786;6.018;2024-03-08T08:09:06;32.37;;;18.53;;
23802;SDS011;12082;51.786;6.018;2024-03-08T08:11:39;29.47;;;17.60;;
23802;SDS011;12082;51.786;6.018;2024-03-08T08:14:06;27.30;;;17.23;;
23802;SDS011;12082;51.786;6.018;2024-03-08T08:16:34;28.23;;;16.83;;
23802;SDS011;12082;51.786;6.018;2024-03-08T08:19:01;24.50;;;16.10;;
23802;SDS011;12082;51.786;6.018;2024-03-08T08:21:32;25.67;;;16.33;;
23802;SDS011;12082;51.786;6.018;2024-03-08T08:23:58;25.43;;;16.00;;
23802;SDS011;12082;51.786;6.018;2024-03-08T08:26:25;26.33;;;16.17;;
23802;SDS011;12082;51.786;6.018;2024-03-08T08:28:51;26.93;;;17.30;;
23802;SDS011;12082;51.786;6.018;2024-03-08T08:31:18;24.73;;;16.33;;
23802;SDS011;12082;51.786;6.018;2024-03-08T08:33:44;33.67;;;18.53;;
23802;SDS011;12082;51.786;6.018;2024-03-08T08:36:10;28.27;;;16.77;;
23802;SDS011;12082;51.786;6.018;2024-03-08T08:38:36;30.43;;;18.30;;
23802;SDS011;12082;51.786;6.018;2024-03-08T08:41:03;28.97;;;18.33;;
23802;SDS011;12082;51.786;6.018;2024-03-08T08:43:31;28.40;;;18.67;;
23802;SDS011;12082;51.786;6.018;2024-03-08T08:45:58;30.80;;;19.03;;
23802;SDS011;12082;51.786;6.018;2024-03-08T08:48:24;30.60;;;17.33;;
23802;SDS011;12082;51.786;6.018;2024-03-08T08:50:51;33.47;;;18.73;;
23802;SDS011;12082;51.786;6.018;2024-03-08T08:53:17;30.27;;;18.63;;
23802;SDS011;12082;51.786;6.018;2024-03-08T08:55:43;32.33;;;17.97;;
23802;SDS011;12082;51.786;6.018;2024-03-08T08:58:11;32.43;;;19.23;;
23802;SDS011;12082;51.786;6.018;2024-03-08T09:00:37;34.90;;;19.07;;
23802;SDS011;12082;51.786;6.018;2024-03-08T09:03:04;30.73;;;18.20;;
23802;SDS011;12082;51.786;6.018;2024-03-08T09:05:31;30.37;;;18.03;;
23802;SDS011;12082;51.786;6.018;2024-03-08T09:07:58;28.97;;;18.17;;
23802;SDS011;12082;51.786;6.018;2024-03-08T09:10:25;34.60;;;18.27;;
23802;SDS011;12082;51.786;6.018;2024-03-08T09:12:52;28.13;;;17.90;;
23802;SDS011;12082;51.786;6.018;2024-03-08T09:15:19;27.90;;;18.03;;
23802;SDS011;12082;51.786;6.018;2024-03-08T09:17:46;28.47;;;17.67;;
23802;SDS011;12082;51.786;6.018;2024-03-08T09:20:13;32.17;;;18.53;;
23802;SDS011;12082;51.786;6.018;2024-03-08T09:22:40;30.60;;;19.20;;
23802;SDS011;12082;51.786;6.018;2024-03-08T09:25:06;32.17;;;18.13;;
23802;SDS011;12082;51.786;6.018;2024-03-08T09:27:34;33.47;;;19.53;;
23802;SDS011;12082;51.786;6.018;2024-03-08T09:30:00;31.37;;;19.47;;
23802;SDS011;12082;51.786;6.018;2024-03-08T09:32:26;29.30;;;18.90;;
23802;SDS011;12082;51.786;6.018;2024-03-08T09:34:52;29.60;;;18.13;;
23802;SDS011;12082;51.786;6.018;2024-03-08T09:37:18;29.70;;;17.23;;
23802;SDS011;12082;51.786;6.018;2024-03-08T09:39:44;32.80;;;19.50;;
23802;SDS011;12082;51.786;6.018;2024-03-08T09:42:11;27.67;;;16.97;;
23802;SDS011;12082;51.786;6.018;2024-03-08T09:44:44;31.83;;;18.20;;
23802;SDS011;12082;51.786;6.018;2024-03-08T09:47:11;29.13;;;18.07;;
23802;SDS011;12082;51.786;6.018;2024-03-08T09:49:39;31.30;;;18.67;;
23802;SDS011;12082;51.786;6.018;2024-03-08T09:52:05;29.83;;;18.20;;
23802;SDS011;12082;51.786;6.018;2024-03-08T09:54:32;31.60;;;18.00;;
23802;SDS011;12082;51.786;6.018;2024-03-08T09:56:58;31.83;;;18.03;;
23802;SDS011;12082;51.786;6.018;2024-03-08T09:59:24;34.33;;;17.63;;
23802;SDS011;12082;51.786;6.018;2024-03-08T10:01:51;30.37;;;18.47;;
23802;SDS011;12082;51.786;6.018;2024-03-08T10:04:17;30.67;;;18.53;;
23802;SDS011;12082;51.786;6.018;2024-03-08T10:06:43;33.70;;;18.83;;
23802;SDS011;12082;51.786;6.018;2024-03-08T10:09:09;27.00;;;17.63;;
23802;SDS011;12082;51.786;6.018;2024-03-08T10:11:37;33.40;;;18.90;;
23802;SDS011;12082;51.786;6.018;2024-03-08T10:14:04;28.23;;;17.93;;
23802;SDS011;12082;51.786;6.018;2024-03-08T10:16:31;29.77;;;17.00;;
23802;SDS011;12082;51.786;6.018;2024-03-08T10:18:57;31.20;;;18.00;;
23802;SDS011;12082;51.786;6.018;2024-03-08T10:21:23;29.10;;;17.60;;
23802;SDS011;12082;51.786;6.018;2024-03-08T10:23:50;28.73;;;16.80;;
23802;SDS011;12082;51.786;6.018;2024-03-08T10:26:16;25.17;;;15.80;;
23802;SDS011;12082;51.786;6.018;2024-03-08T10:28:45;27.63;;;16.67;;
23802;SDS011;12082;51.786;6.018;2024-03-08T10:31:15;25.53;;;16.50;;
23802;SDS011;12082;51.786;6.018;2024-03-08T10:33:41;29.80;;;16.67;;
23802;SDS011;12082;51.786;6.018;2024-03-08T10:36:07;25.33;;;15.70;;
23802;SDS011;12082;51.786;6.018;2024-03-08T10:38:35;28.27;;;16.43;;
23802;SDS011;12082;51.786;6.018;2024-03-08T10:41:01;23.93;;;15.73;;
23802;SDS011;12082;51.786;6.018;2024-03-08T10:43:31;29.23;;;16.90;;
23802;SDS011;12082;51.786;6.018;2024-03-08T10:46:48;28.73;;;16.33;;
23802;SDS011;12082;51.786;6.018;2024-03-08T10:48:51;23.63;;;15.00;;
23802;SDS011;12082;51.786;6.018;2024-03-08T10:51:18;23.03;;;16.13;;
23802;SDS011;12082;51.786;6.018;2024-03-08T10:53:46;27.37;;;16.47;;
23802;SDS011;12082;51.786;6.018;2024-03-08T10:56:12;24.80;;;15.87;;
23802;SDS011;12082;51.786;6.018;2024-03-08T10:58:39;27.93;;;15.67;;
23802;SDS011;12082;51.786;6.018;2024-03-08T11:01:06;25.60;;;16.00;;
23802;SDS011;12082;51.786;6.018;2024-03-08T11:06:13;35.30;;;16.00;;
23802;SDS011;12082;51.786;6.018;2024-03-08T11:08:40;25.83;;;14.97;;
23802;SDS011;12082;51.786;6.018;2024-03-08T11:11:09;23.60;;;15.50;;
23802;SDS011;12082;51.786;6.018;2024-03-08T11:13:52;25.17;;;15.80;;
23802;SDS011;12082;51.786;6.018;2024-03-08T11:16:39;22.50;;;14.90;;
23802;SDS011;12082;51.786;6.018;2024-03-08T11:21:50;23.73;;;14.10;;
23802;SDS011;12082;51.786;6.018;2024-03-08T11:24:22;25.17;;;14.73;;
23802;SDS011;12082;51.786;6.018;2024-03-08T11:26:49;28.57;;;14.97;;
23802;SDS011;12082;51.786;6.018;2024-03-08T11:34:32;22.83;;;14.07;;
23802;SDS011;12082;51.786;6.018;2024-03-08T11:36:59;21.53;;;13.33;;
23802;SDS011;12082;51.786;6.018;2024-03-08T11:39:25;21.07;;;12.90;;
23802;SDS011;12082;51.786;6.018;2024-03-08T11:41:53;23.50;;;14.37;;
23802;SDS011;12082;51.786;6.018;2024-03-08T11:44:20;22.77;;;14.00;;
23802;SDS011;12082;51.786;6.018;2024-03-08T11:46:46;27.70;;;15.70;;
23802;SDS011;12082;51.786;6.018;2024-03-08T11:49:15;20.67;;;14.33;;
23802;SDS011;12082;51.786;6.018;2024-03-08T11:51:42;26.27;;;14.47;;
23802;SDS011;12082;51.786;6.018;2024-03-08T11:54:12;24.20;;;15.27;;
23802;SDS011;12082;51.786;6.018;2024-03-08T11:56:38;25.20;;;14.87;;
23802;SDS011;12082;51.786;6.018;2024-03-08T11:59:06;25.77;;;15.07;;
23802;SDS011;12082;51.786;6.018;2024-03-08T12:01:37;23.30;;;14.97;;
23802;SDS011;12082;51.786;6.018;2024-03-08T12:04:03;24.23;;;13.93;;
23802;SDS011;12082;51.786;6.018;2024-03-08T12:06:37;24.23;;;14.10;;
23802;SDS011;12082;51.786;6.018;2024-03-08T12:09:04;19.93;;;13.00;;
23802;SDS011;12082;51.786;6.018;2024-03-08T12:11:30;22.37;;;14.43;;
23802;SDS011;12082;51.786;6.018;2024-03-08T12:13:56;21.93;;;14.10;;
23802;SDS011;12082;51.786;6.018;2024-03-08T12:16:23;27.20;;;13.83;;
23802;SDS011;12082;51.786;6.018;2024-03-08T12:18:50;21.10;;;13.47;;
23802;SDS011;12082;51.786;6.018;2024-03-08T12:21:17;21.50;;;13.13;;
23802;SDS011;12082;51.786;6.018;2024-03-08T12:23:45;23.57;;;14.27;;
23802;SDS011;12082;51.786;6.018;2024-03-08T12:26:16;22.80;;;14.27;;
23802;SDS011;12082;51.786;6.018;2024-03-08T12:28:42;25.40;;;14.73;;
23802;SDS011;12082;51.786;6.018;2024-03-08T12:31:15;22.70;;;13.77;;
23802;SDS011;12082;51.786;6.018;2024-03-08T12:33:52;21.10;;;14.07;;
23802;SDS011;12082;51.786;6.018;2024-03-08T12:36:19;23.93;;;14.43;;
23802;SDS011;12082;51.786;6.018;2024-03-08T12:38:48;24.63;;;15.40;;
23802;SDS011;12082;51.786;6.018;2024-03-08T12:41:17;24.77;;;14.57;;
23802;SDS011;12082;51.786;6.018;2024-03-08T12:43:44;24.57;;;13.90;;
23802;SDS011;12082;51.786;6.018;2024-03-08T12:46:16;23.13;;;14.40;;
23802;SDS011;12082;51.786;6.018;2024-03-08T12:48:42;25.27;;;14.03;;
23802;SDS011;12082;51.786;6.018;2024-03-08T12:51:12;24.93;;;14.17;;
23802;SDS011;12082;51.786;6.018;2024-03-08T12:53:37;25.73;;;15.00;;
23802;SDS011;12082;51.786;6.018;2024-03-08T12:56:05;23.70;;;14.57;;
23802;SDS011;12082;51.786;6.018;2024-03-08T12:58:34;28.13;;;14.43;;
23802;SDS011;12082;51.786;6.018;2024-03-08T13:01:01;22.63;;;14.53;;
23802;SDS011;12082;51.786;6.018;2024-03-08T13:03:29;24.67;;;13.70;;
23802;SDS011;12082;51.786;6.018;2024-03-08T13:05:56;23.40;;;13.33;;
23802;SDS011;12082;51.786;6.018;2024-03-08T13:08:22;21.27;;;14.43;;
23802;SDS011;12082;51.786;6.018;2024-03-08T13:10:51;22.17;;;14.23;;
23802;SDS011;12082;51.786;6.018;2024-03-08T13:13:17;26.23;;;14.50;;
23802;SDS011;12082;51.786;6.018;2024-03-08T13:15:44;23.47;;;14.33;;
23802;SDS011;12082;51.786;6.018;2024-03-08T13:18:10;25.17;;;14.80;;
23802;SDS011;12082;51.786;6.018;2024-03-08T13:20:36;24.97;;;14.57;;
23802;SDS011;12082;51.786;6.018;2024-03-08T13:23:03;24.60;;;14.93;;
23802;SDS011;12082;51.786;6.018;2024-03-08T13:25:30;25.93;;;14.20;;
23802;SDS011;12082;51.786;6.018;2024-03-08T13:27:56;23.93;;;14.57;;
23802;SDS011;12082;51.786;6.018;2024-03-08T13:30:24;22.97;;;14.03;;
23802;SDS011;12082;51.786;6.018;2024-03-08T13:32:54;22.30;;;13.97;;
23802;SDS011;12082;51.786;6.018;2024-03-08T13:35:20;26.50;;;14.77;;
23802;SDS011;12082;51.786;6.018;2024-03-08T13:37:51;26.63;;;14.90;;
23802;SDS011;12082;51.786;6.018;2024-03-08T13:40:17;26.30;;;15.13;;
23802;SDS011;12082;51.786;6.018;2024-03-08T13:42:46;23.53;;;15.43;;
23802;SDS011;12082;51.786;6.018;2024-03-08T13:45:14;26.13;;;15.63;;
23802;SDS011;12082;51.786;6.018;2024-03-08T13:47:42;26.73;;;15.73;;
23802;SDS011;12082;51.786;6.018;2024-03-08T13:50:09;23.77;;;15.73;;
23802;SDS011;12082;51.786;6.018;2024-03-08T13:52:41;25.40;;;15.30;;
23802;SDS011;12082;51.786;6.018;2024-03-08T13:55:08;20.70;;;14.33;;
23802;SDS011;12082;51.786;6.018;2024-03-08T13:57:35;25.77;;;15.47;;
23802;SDS011;12082;51.786;6.018;2024-03-08T14:00:01;23.80;;;15.17;;
23802;SDS011;12082;51.786;6.018;2024-03-08T14:02:28;24.17;;;14.93;;
23802;SDS011;12082;51.786;6.018;2024-03-08T14:04:56;23.13;;;15.20;;
23802;SDS011;12082;51.786;6.018;2024-03-08T14:07:22;24.27;;;14.73;;
23802;SDS011;12082;51.786;6.018;2024-03-08T14:09:49;21.07;;;15.17;;
23802;SDS011;12082;51.786;6.018;2024-03-08T14:12:17;22.73;;;14.43;;
23802;SDS011;12082;51.786;6.018;2024-03-08T14:14:44;23.53;;;14.20;;
23802;SDS011;12082;51.786;6.018;2024-03-08T14:17:10;20.30;;;13.67;;
23802;SDS011;12082;51.786;6.018;2024-03-08T14:19:40;22.67;;;14.37;;
23802;SDS011;12082;51.786;6.018;2024-03-08T14:22:06;24.13;;;14.53;;
23802;SDS011;12082;51.786;6.018;2024-03-08T14:24:35;25.57;;;14.60;;
23802;SDS011;12082;51.786;6.018;2024-03-08T14:27:02;22.73;;;14.33;;
23802;SDS011;12082;51.786;6.018;2024-03-08T14:29:28;21.03;;;14.10;;
23802;SDS011;12082;51.786;6.018;2024-03-08T14:31:57;28.90;;;14.93;;